sensor_id;sensor_type;location;lat;lon;timestamp;P1;durP1;ratioP1;P2;durP2;ratioP2
826;SDS011;395;48.132;11.608;2023-03-03T00:00:24;38.20;;;22.17;;
826;SDS011;395;48.132;11.608;2023-03-03T00:02:50;33.90;;;20.27;;
826;SDS011;395;48.132;11.608;2023-03-03T00:05:16;38.27;;;22.50;;
826;SDS011;395;48.132;11.608;2023-03-03T00:07:43;35.25;;;21.75;;
826;SDS011;395;48.132;11.608;2023-03-03T00:10:09;39.28;;;21.60;;
826;SDS011;395;48.132;11.608;2023-03-03T00:12:35;38.22;;;22.30;;
826;SDS011;395;48.132;11.608;2023-03-03T00:15:14;38.80;;;22.33;;
826;SDS011;395;48.132;11.608;2023-03-03T00:17:44;38.53;;;21.77;;
826;SDS011;395;48.132;11.608;2023-03-03T00:25:44;38.92;;;22.52;;
826;SDS011;395;48.132;11.608;2023-03-03T00:28:27;38.47;;;23.30;;
826;SDS011;395;48.132;11.608;2023-03-03T00:31:01;39.03;;;21.80;;
826;SDS011;395;48.132;11.608;2023-03-03T00:33:42;37.60;;;22.58;;
826;SDS011;395;48.132;11.608;2023-03-03T00:38:41;38.13;;;21.20;;
826;SDS011;395;48.132;11.608;2023-03-03T00:41:24;36.35;;;20.50;;
826;SDS011;395;48.132;11.608;2023-03-03T00:43:52;36.85;;;23.73;;
826;SDS011;395;48.132;11.608;2023-03-03T00:46:19;42.38;;;21.15;;
826;SDS011;395;48.132;11.608;2023-03-03T00:48:46;39.17;;;21.67;;
826;SDS011;395;48.132;11.608;2023-03-03T00:51:30;36.88;;;21.92;;
826;SDS011;395;48.132;11.608;2023-03-03T00:53:58;38.47;;;22.45;;
826;SDS011;395;48.132;11.608;2023-03-03T00:56:24;35.17;;;21.50;;
826;SDS011;395;48.132;11.608;2023-03-03T00:58:51;41.35;;;23.85;;
826;SDS011;395;48.132;11.608;2023-03-03T01:01:17;43.20;;;23.43;;
826;SDS011;395;48.132;11.608;2023-03-03T01:03:43;43.13;;;23.10;;
826;SDS011;395;48.132;11.608;2023-03-03T01:06:09;43.73;;;22.73;;
826;SDS011;395;48.132;11.608;2023-03-03T01:08:36;39.50;;;22.60;;
826;SDS011;395;48.132;11.608;2023-03-03T01:11:03;43.93;;;23.03;;
826;SDS011;395;48.132;11.608;2023-03-03T01:13:35;39.83;;;21.88;;
826;SDS011;395;48.132;11.608;2023-03-03T01:16:02;43.47;;;23.45;;
826;SDS011;395;48.132;11.608;2023-03-03T01:18:28;41.22;;;23.25;;
826;SDS011;395;48.132;11.608;2023-03-03T01:20:54;35.83;;;22.15;;
826;SDS011;395;48.132;11.608;2023-03-03T01:23:20;35.20;;;22.37;;
826;SDS011;395;48.132;11.608;2023-03-03T01:25:46;42.97;;;23.13;;
826;SDS011;395;48.132;11.608;2023-03-03T01:28:12;37.20;;;23.52;;
826;SDS011;395;48.132;11.608;2023-03-03T01:30:37;39.80;;;21.97;;
826;SDS011;395;48.132;11.608;2023-03-03T01:33:03;38.30;;;23.03;;
826;SDS011;395;48.132;11.608;2023-03-03T01:35:29;40.57;;;22.53;;
826;SDS011;395;48.132;11.608;2023-03-03T01:37:54;40.07;;;21.70;;
826;SDS011;395;48.132;11.608;2023-03-03T01:40:24;36.13;;;22.20;;
826;SDS011;395;48.132;11.608;2023-03-03T01:42:51;36.25;;;22.70;;
826;SDS011;395;48.132;11.608;2023-03-03T01:45:22;37.30;;;22.23;;
826;SDS011;395;48.132;11.608;2023-03-03T01:48:08;36.30;;;20.35;;
826;SDS011;395;48.132;11.608;2023-03-03T01:50:45;37.42;;;21.83;;
826;SDS011;395;48.132;11.608;2023-03-03T01:53:17;37.90;;;22.55;;
826;SDS011;395;48.132;11.608;2023-03-03T01:55:46;40.45;;;22.88;;
826;SDS011;395;48.132;11.608;2023-03-03T01:58:22;43.83;;;23.25;;
826;SDS011;395;48.132;11.608;2023-03-03T02:00:55;37.88;;;22.88;;
826;SDS011;395;48.132;11.608;2023-03-03T02:03:24;32.58;;;20.58;;
826;SDS011;395;48.132;11.608;2023-03-03T02:05:51;36.17;;;20.88;;
826;SDS011;395;48.132;11.608;2023-03-03T02:08:24;39.15;;;21.67;;
826;SDS011;395;48.132;11.608;2023-03-03T02:10:59;36.42;;;20.33;;
826;SDS011;395;48.132;11.608;2023-03-03T02:13:26;45.75;;;22.65;;
826;SDS011;395;48.132;11.608;2023-03-03T02:15:52;40.40;;;22.90;;
826;SDS011;395;48.132;11.608;2023-03-03T02:18:17;37.10;;;21.57;;
826;SDS011;395;48.132;11.608;2023-03-03T02:26:35;33.00;;;20.90;;
826;SDS011;395;48.132;11.608;2023-03-03T02:29:04;35.53;;;21.10;;
826;SDS011;395;48.132;11.608;2023-03-03T02:31:30;45.47;;;23.20;;
826;SDS011;395;48.132;11.608;2023-03-03T02:33:56;48.95;;;24.23;;
826;SDS011;395;48.132;11.608;2023-03-03T02:36:26;35.97;;;21.67;;
826;SDS011;395;48.132;11.608;2023-03-03T02:44:32;37.88;;;22.27;;
826;SDS011;395;48.132;11.608;2023-03-03T02:46:59;38.75;;;22.92;;
826;SDS011;395;48.132;11.608;2023-03-03T02:49:26;35.53;;;21.73;;
826;SDS011;395;48.132;11.608;2023-03-03T02:51:56;38.83;;;22.30;;
826;SDS011;395;48.132;11.608;2023-03-03T02:54:24;35.95;;;21.58;;
826;SDS011;395;48.132;11.608;2023-03-03T02:56:50;37.92;;;23.35;;
826;SDS011;395;48.132;11.608;2023-03-03T02:59:17;42.43;;;21.83;;
826;SDS011;395;48.132;11.608;2023-03-03T03:01:43;34.30;;;21.10;;
826;SDS011;395;48.132;11.608;2023-03-03T03:04:14;35.40;;;22.95;;
826;SDS011;395;48.132;11.608;2023-03-03T03:06:41;41.55;;;22.67;;
826;SDS011;395;48.132;11.608;2023-03-03T03:09:08;40.85;;;22.20;;
826;SDS011;395;48.132;11.608;2023-03-03T03:11:35;39.15;;;21.98;;
826;SDS011;395;48.132;11.608;2023-03-03T03:14:01;43.47;;;24.50;;
826;SDS011;395;48.132;11.608;2023-03-03T03:16:28;35.08;;;21.20;;
826;SDS011;395;48.132;11.608;2023-03-03T03:18:55;36.58;;;22.13;;
826;SDS011;395;48.132;11.608;2023-03-03T03:21:22;38.78;;;21.42;;
826;SDS011;395;48.132;11.608;2023-03-03T03:23:48;40.87;;;22.90;;
826;SDS011;395;48.132;11.608;2023-03-03T03:26:13;34.70;;;21.27;;
826;SDS011;395;48.132;11.608;2023-03-03T03:28:39;40.73;;;23.10;;
826;SDS011;395;48.132;11.608;2023-03-03T03:31:05;36.93;;;21.13;;
826;SDS011;395;48.132;11.608;2023-03-03T03:33:32;36.80;;;21.35;;
826;SDS011;395;48.132;11.608;2023-03-03T03:35:58;37.28;;;22.27;;
826;SDS011;395;48.132;11.608;2023-03-03T03:38:24;35.65;;;21.27;;
826;SDS011;395;48.132;11.608;2023-03-03T03:40:51;42.28;;;23.42;;
826;SDS011;395;48.132;11.608;2023-03-03T03:43:17;32.38;;;22.15;;
826;SDS011;395;48.132;11.608;2023-03-03T03:45:43;37.33;;;23.10;;
826;SDS011;395;48.132;11.608;2023-03-03T03:48:09;39.95;;;24.38;;
826;SDS011;395;48.132;11.608;2023-03-03T03:50:36;37.47;;;21.75;;
826;SDS011;395;48.132;11.608;2023-03-03T03:53:02;37.88;;;22.60;;
826;SDS011;395;48.132;11.608;2023-03-03T03:55:29;38.75;;;23.23;;
826;SDS011;395;48.132;11.608;2023-03-03T03:57:55;36.50;;;21.93;;
826;SDS011;395;48.132;11.608;2023-03-03T04:00:21;40.88;;;23.10;;
826;SDS011;395;48.132;11.608;2023-03-03T04:02:47;37.78;;;22.52;;
826;SDS011;395;48.132;11.608;2023-03-03T04:05:13;37.07;;;23.10;;
826;SDS011;395;48.132;11.608;2023-03-03T04:07:38;44.70;;;23.20;;
826;SDS011;395;48.132;11.608;2023-03-03T04:10:04;37.87;;;23.03;;
826;SDS011;395;48.132;11.608;2023-03-03T04:12:30;38.28;;;22.88;;
826;SDS011;395;48.132;11.608;2023-03-03T04:15:03;41.10;;;22.88;;
826;SDS011;395;48.132;11.608;2023-03-03T04:17:30;35.03;;;21.58;;
826;SDS011;395;48.132;11.608;2023-03-03T04:19:56;37.50;;;23.43;;
826;SDS011;395;48.132;11.608;2023-03-03T04:22:21;42.70;;;23.80;;
826;SDS011;395;48.132;11.608;2023-03-03T04:24:47;39.67;;;22.60;;
826;SDS011;395;48.132;11.608;2023-03-03T04:27:12;38.30;;;22.50;;
826;SDS011;395;48.132;11.608;2023-03-03T04:29:39;40.55;;;22.80;;
826;SDS011;395;48.132;11.608;2023-03-03T04:32:05;41.03;;;24.40;;
826;SDS011;395;48.132;11.608;2023-03-03T04:34:31;43.67;;;24.27;;
826;SDS011;395;48.132;11.608;2023-03-03T04:36:57;39.35;;;23.75;;
826;SDS011;395;48.132;11.608;2023-03-03T04:39:23;40.20;;;23.33;;
826;SDS011;395;48.132;11.608;2023-03-03T04:41:49;45.03;;;25.83;;
826;SDS011;395;48.132;11.608;2023-03-03T04:44:14;43.30;;;24.67;;
826;SDS011;395;48.132;11.608;2023-03-03T04:46:40;45.67;;;25.67;;
826;SDS011;395;48.132;11.608;2023-03-03T04:49:05;39.80;;;22.90;;
826;SDS011;395;48.132;11.608;2023-03-03T04:51:32;41.25;;;25.40;;
826;SDS011;395;48.132;11.608;2023-03-03T04:53:58;46.40;;;24.52;;
826;SDS011;395;48.132;11.608;2023-03-03T04:56:24;43.57;;;23.83;;
826;SDS011;395;48.132;11.608;2023-03-03T04:58:50;47.40;;;25.67;;
826;SDS011;395;48.132;11.608;2023-03-03T05:01:16;42.42;;;25.08;;
826;SDS011;395;48.132;11.608;2023-03-03T05:03:43;44.10;;;23.25;;
826;SDS011;395;48.132;11.608;2023-03-03T05:06:09;41.80;;;24.80;;
826;SDS011;395;48.132;11.608;2023-03-03T05:08:35;43.57;;;24.60;;
826;SDS011;395;48.132;11.608;2023-03-03T05:11:01;44.97;;;26.07;;
826;SDS011;395;48.132;11.608;2023-03-03T05:13:27;46.73;;;24.57;;
826;SDS011;395;48.132;11.608;2023-03-03T05:15:53;46.95;;;25.52;;
826;SDS011;395;48.132;11.608;2023-03-03T05:18:23;44.25;;;24.92;;
826;SDS011;395;48.132;11.608;2023-03-03T05:20:50;43.47;;;24.70;;
826;SDS011;395;48.132;11.608;2023-03-03T05:23:17;45.55;;;25.20;;
826;SDS011;395;48.132;11.608;2023-03-03T05:25:43;43.97;;;24.52;;
826;SDS011;395;48.132;11.608;2023-03-03T05:28:11;45.33;;;25.83;;
826;SDS011;395;48.132;11.608;2023-03-03T05:30:36;46.00;;;25.83;;
826;SDS011;395;48.132;11.608;2023-03-03T05:33:03;44.13;;;24.33;;
826;SDS011;395;48.132;11.608;2023-03-03T05:35:28;44.38;;;26.80;;
826;SDS011;395;48.132;11.608;2023-03-03T05:37:54;44.10;;;25.90;;
826;SDS011;395;48.132;11.608;2023-03-03T05:40:22;40.78;;;24.85;;
826;SDS011;395;48.132;11.608;2023-03-03T05:42:48;42.25;;;25.15;;
826;SDS011;395;48.132;11.608;2023-03-03T05:45:14;42.57;;;23.80;;
826;SDS011;395;48.132;11.608;2023-03-03T05:47:39;47.30;;;25.80;;
826;SDS011;395;48.132;11.608;2023-03-03T05:50:05;45.97;;;25.37;;
826;SDS011;395;48.132;11.608;2023-03-03T05:52:31;48.87;;;25.77;;
826;SDS011;395;48.132;11.608;2023-03-03T05:54:56;45.90;;;26.80;;
826;SDS011;395;48.132;11.608;2023-03-03T05:57:22;46.40;;;26.30;;
826;SDS011;395;48.132;11.608;2023-03-03T05:59:48;49.60;;;25.70;;
826;SDS011;395;48.132;11.608;2023-03-03T06:02:13;44.40;;;25.63;;
826;SDS011;395;48.132;11.608;2023-03-03T06:04:39;48.00;;;26.37;;
826;SDS011;395;48.132;11.608;2023-03-03T06:07:05;42.90;;;25.50;;
826;SDS011;395;48.132;11.608;2023-03-03T06:09:31;52.53;;;27.00;;
826;SDS011;395;48.132;11.608;2023-03-03T06:11:57;43.17;;;24.88;;
826;SDS011;395;48.132;11.608;2023-03-03T06:14:23;47.50;;;27.30;;
826;SDS011;395;48.132;11.608;2023-03-03T06:16:48;41.83;;;25.50;;
826;SDS011;395;48.132;11.608;2023-03-03T06:19:14;49.13;;;26.98;;
826;SDS011;395;48.132;11.608;2023-03-03T06:21:40;44.10;;;24.77;;
826;SDS011;395;48.132;11.608;2023-03-03T06:24:06;47.30;;;26.47;;
826;SDS011;395;48.132;11.608;2023-03-03T06:26:32;45.55;;;25.60;;
826;SDS011;395;48.132;11.608;2023-03-03T06:28:58;47.63;;;27.53;;
826;SDS011;395;48.132;11.608;2023-03-03T06:31:24;45.28;;;26.73;;
826;SDS011;395;48.132;11.608;2023-03-03T06:33:51;42.13;;;25.40;;
826;SDS011;395;48.132;11.608;2023-03-03T06:36:17;42.95;;;26.45;;
826;SDS011;395;48.132;11.608;2023-03-03T06:38:43;43.30;;;25.33;;
826;SDS011;395;48.132;11.608;2023-03-03T06:41:09;46.27;;;27.10;;
826;SDS011;395;48.132;11.608;2023-03-03T06:43:35;51.42;;;28.55;;
826;SDS011;395;48.132;11.608;2023-03-03T06:46:01;51.53;;;28.80;;
826;SDS011;395;48.132;11.608;2023-03-03T06:48:28;50.40;;;27.00;;
826;SDS011;395;48.132;11.608;2023-03-03T06:50:54;51.20;;;28.42;;
826;SDS011;395;48.132;11.608;2023-03-03T06:53:20;46.00;;;27.33;;
826;SDS011;395;48.132;11.608;2023-03-03T06:55:46;53.27;;;29.17;;
826;SDS011;395;48.132;11.608;2023-03-03T06:58:14;48.72;;;27.30;;
826;SDS011;395;48.132;11.608;2023-03-03T07:00:54;50.67;;;26.90;;
826;SDS011;395;48.132;11.608;2023-03-03T07:03:23;48.47;;;26.42;;
826;SDS011;395;48.132;11.608;2023-03-03T07:05:58;48.67;;;27.25;;
826;SDS011;395;48.132;11.608;2023-03-03T07:08:25;45.72;;;26.80;;
826;SDS011;395;48.132;11.608;2023-03-03T07:10:55;48.03;;;26.75;;
826;SDS011;395;48.132;11.608;2023-03-03T07:13:26;48.47;;;26.48;;
826;SDS011;395;48.132;11.608;2023-03-03T07:15:58;59.60;;;29.42;;
826;SDS011;395;48.132;11.608;2023-03-03T07:21:18;45.95;;;27.38;;
826;SDS011;395;48.132;11.608;2023-03-03T07:23:45;45.10;;;26.95;;
826;SDS011;395;48.132;11.608;2023-03-03T07:26:19;47.30;;;28.15;;
826;SDS011;395;48.132;11.608;2023-03-03T07:31:50;44.70;;;26.67;;
826;SDS011;395;48.132;11.608;2023-03-03T07:36:45;48.60;;;29.20;;
826;SDS011;395;48.132;11.608;2023-03-03T07:39:34;50.20;;;28.92;;
826;SDS011;395;48.132;11.608;2023-03-03T07:42:01;49.50;;;28.13;;
826;SDS011;395;48.132;11.608;2023-03-03T07:44:36;50.22;;;27.27;;
826;SDS011;395;48.132;11.608;2023-03-03T07:49:46;44.40;;;26.95;;
826;SDS011;395;48.132;11.608;2023-03-03T07:52:23;48.30;;;28.13;;
826;SDS011;395;48.132;11.608;2023-03-03T07:54:52;55.72;;;29.63;;
826;SDS011;395;48.132;11.608;2023-03-03T07:57:35;51.50;;;27.83;;
826;SDS011;395;48.132;11.608;2023-03-03T08:10:58;50.60;;;27.88;;
826;SDS011;395;48.132;11.608;2023-03-03T08:18:33;50.03;;;29.52;;
826;SDS011;395;48.132;11.608;2023-03-03T08:21:34;49.22;;;30.15;;
826;SDS011;395;48.132;11.608;2023-03-03T08:23:55;49.80;;;27.75;;
826;SDS011;395;48.132;11.608;2023-03-03T08:26:22;42.47;;;26.85;;
826;SDS011;395;48.132;11.608;2023-03-03T08:28:50;45.72;;;26.50;;
826;SDS011;395;48.132;11.608;2023-03-03T08:31:16;49.60;;;27.93;;
826;SDS011;395;48.132;11.608;2023-03-03T08:33:41;49.37;;;29.30;;
826;SDS011;395;48.132;11.608;2023-03-03T08:36:08;43.50;;;26.02;;
826;SDS011;395;48.132;11.608;2023-03-03T08:38:33;46.47;;;27.10;;
826;SDS011;395;48.132;11.608;2023-03-03T08:40:59;51.07;;;28.67;;
826;SDS011;395;48.132;11.608;2023-03-03T08:43:25;51.37;;;29.80;;
826;SDS011;395;48.132;11.608;2023-03-03T08:45:52;52.00;;;28.38;;
826;SDS011;395;48.132;11.608;2023-03-03T08:48:24;48.13;;;27.58;;
826;SDS011;395;48.132;11.608;2023-03-03T08:50:50;48.20;;;28.77;;
826;SDS011;395;48.132;11.608;2023-03-03T08:53:17;50.40;;;28.57;;
826;SDS011;395;48.132;11.608;2023-03-03T08:55:44;49.55;;;28.83;;
826;SDS011;395;48.132;11.608;2023-03-03T08:58:09;46.30;;;27.73;;
826;SDS011;395;48.132;11.608;2023-03-03T09:00:35;49.97;;;29.73;;
826;SDS011;395;48.132;11.608;2023-03-03T09:03:02;47.13;;;28.35;;
826;SDS011;395;48.132;11.608;2023-03-03T09:05:31;49.70;;;28.13;;
826;SDS011;395;48.132;11.608;2023-03-03T09:07:57;50.17;;;29.48;;
826;SDS011;395;48.132;11.608;2023-03-03T09:10:24;45.28;;;28.27;;
826;SDS011;395;48.132;11.608;2023-03-03T09:12:59;56.50;;;31.27;;
826;SDS011;395;48.132;11.608;2023-03-03T09:15:31;55.38;;;31.83;;
826;SDS011;395;48.132;11.608;2023-03-03T09:17:59;48.92;;;29.90;;
826;SDS011;395;48.132;11.608;2023-03-03T09:20:49;45.60;;;29.23;;
826;SDS011;395;48.132;11.608;2023-03-03T09:28:54;54.08;;;30.23;;
826;SDS011;395;48.132;11.608;2023-03-03T09:39:38;53.70;;;31.15;;
826;SDS011;395;48.132;11.608;2023-03-03T10:12:14;51.15;;;30.48;;
826;SDS011;395;48.132;11.608;2023-03-03T10:20:11;48.40;;;27.08;;
826;SDS011;395;48.132;11.608;2023-03-03T10:22:54;50.43;;;29.30;;
826;SDS011;395;48.132;11.608;2023-03-03T10:28:20;46.25;;;28.63;;
826;SDS011;395;48.132;11.608;2023-03-03T10:36:23;44.50;;;28.17;;
826;SDS011;395;48.132;11.608;2023-03-03T10:49:36;39.35;;;24.90;;
826;SDS011;395;48.132;11.608;2023-03-03T10:55:07;42.90;;;27.83;;
826;SDS011;395;48.132;11.608;2023-03-03T11:02:55;49.30;;;29.50;;
826;SDS011;395;48.132;11.608;2023-03-03T11:08:27;48.72;;;29.80;;
826;SDS011;395;48.132;11.608;2023-03-03T11:30:24;49.43;;;30.93;;
826;SDS011;395;48.132;11.608;2023-03-03T11:33:15;48.60;;;30.13;;
826;SDS011;395;48.132;11.608;2023-03-03T11:38:47;49.38;;;29.80;;
826;SDS011;395;48.132;11.608;2023-03-03T11:41:29;45.67;;;29.38;;
826;SDS011;395;48.132;11.608;2023-03-03T11:44:01;53.53;;;32.10;;
826;SDS011;395;48.132;11.608;2023-03-03T11:46:45;45.03;;;28.70;;
826;SDS011;395;48.132;11.608;2023-03-03T11:52:02;48.17;;;27.13;;
826;SDS011;395;48.132;11.608;2023-03-03T11:54:31;48.80;;;29.40;;
826;SDS011;395;48.132;11.608;2023-03-03T11:57:15;54.28;;;31.48;;
826;SDS011;395;48.132;11.608;2023-03-03T11:59:47;49.67;;;30.83;;
826;SDS011;395;48.132;11.608;2023-03-03T12:05:21;46.92;;;29.50;;
826;SDS011;395;48.132;11.608;2023-03-03T12:07:49;44.45;;;29.45;;
826;SDS011;395;48.132;11.608;2023-03-03T12:10:23;52.63;;;31.17;;
826;SDS011;395;48.132;11.608;2023-03-03T12:25:21;42.53;;;27.75;;
826;SDS011;395;48.132;11.608;2023-03-03T12:27:55;46.13;;;27.92;;
826;SDS011;395;48.132;11.608;2023-03-03T13:01:51;45.23;;;31.63;;
826;SDS011;395;48.132;11.608;2023-03-03T13:04:54;43.80;;;28.27;;
826;SDS011;395;48.132;11.608;2023-03-03T13:15:34;50.65;;;31.17;;
826;SDS011;395;48.132;11.608;2023-03-03T13:23:40;50.50;;;29.88;;
826;SDS011;395;48.132;11.608;2023-03-03T13:26:19;47.20;;;31.00;;
826;SDS011;395;48.132;11.608;2023-03-03T13:28:58;43.58;;;28.17;;
826;SDS011;395;48.132;11.608;2023-03-03T13:31:32;46.08;;;29.80;;
826;SDS011;395;48.132;11.608;2023-03-03T13:34:01;48.90;;;30.92;;
826;SDS011;395;48.132;11.608;2023-03-03T13:36:38;42.37;;;29.27;;
826;SDS011;395;48.132;11.608;2023-03-03T13:39:26;50.07;;;30.33;;
826;SDS011;395;48.132;11.608;2023-03-03T13:44:43;45.40;;;28.87;;
826;SDS011;395;48.132;11.608;2023-03-03T13:47:37;42.97;;;28.40;;
826;SDS011;395;48.132;11.608;2023-03-03T13:53:00;54.03;;;31.83;;
826;SDS011;395;48.132;11.608;2023-03-03T13:55:40;53.37;;;30.47;;
826;SDS011;395;48.132;11.608;2023-03-03T14:04:30;48.70;;;28.47;;
826;SDS011;395;48.132;11.608;2023-03-03T14:07:02;43.20;;;26.80;;
826;SDS011;395;48.132;11.608;2023-03-03T14:09:58;46.13;;;28.70;;
826;SDS011;395;48.132;11.608;2023-03-03T14:16:03;42.47;;;28.07;;
826;SDS011;395;48.132;11.608;2023-03-03T14:18:23;43.03;;;29.63;;
826;SDS011;395;48.132;11.608;2023-03-03T14:20:57;45.83;;;28.00;;
826;SDS011;395;48.132;11.608;2023-03-03T14:26:21;45.43;;;27.60;;
826;SDS011;395;48.132;11.608;2023-03-03T14:28:47;41.10;;;26.47;;
826;SDS011;395;48.132;11.608;2023-03-03T14:33:46;41.03;;;27.07;;
826;SDS011;395;48.132;11.608;2023-03-03T14:36:26;44.73;;;29.17;;
826;SDS011;395;48.132;11.608;2023-03-03T14:38:57;41.43;;;26.60;;
826;SDS011;395;48.132;11.608;2023-03-03T14:41:39;46.73;;;31.43;;
826;SDS011;395;48.132;11.608;2023-03-03T14:47:27;39.03;;;26.67;;
826;SDS011;395;48.132;11.608;2023-03-03T14:49:49;43.00;;;28.60;;
826;SDS011;395;48.132;11.608;2023-03-03T14:54:43;38.37;;;25.60;;
826;SDS011;395;48.132;11.608;2023-03-03T14:57:12;38.13;;;26.27;;
826;SDS011;395;48.132;11.608;2023-03-03T14:59:55;41.87;;;27.87;;
826;SDS011;395;48.132;11.608;2023-03-03T15:02:30;36.30;;;26.97;;
826;SDS011;395;48.132;11.608;2023-03-03T15:05:24;46.50;;;28.00;;
826;SDS011;395;48.132;11.608;2023-03-03T15:21:30;45.43;;;27.37;;
826;SDS011;395;48.132;11.608;2023-03-03T15:24:09;38.87;;;25.77;;
826;SDS011;395;48.132;11.608;2023-03-03T15:26:53;36.80;;;25.87;;
826;SDS011;395;48.132;11.608;2023-03-03T15:32:24;42.93;;;26.37;;
826;SDS011;395;48.132;11.608;2023-03-03T15:43:39;39.70;;;26.30;;
826;SDS011;395;48.132;11.608;2023-03-03T15:52:24;36.90;;;25.60;;
826;SDS011;395;48.132;11.608;2023-03-03T16:05:51;37.03;;;24.90;;
826;SDS011;395;48.132;11.608;2023-03-03T16:08:29;38.43;;;25.87;;
826;SDS011;395;48.132;11.608;2023-03-03T16:11:07;35.37;;;24.67;;
826;SDS011;395;48.132;11.608;2023-03-03T16:19:25;46.33;;;28.67;;
826;SDS011;395;48.132;11.608;2023-03-03T16:22:23;45.03;;;28.07;;
826;SDS011;395;48.132;11.608;2023-03-03T16:33:21;28.53;;;21.17;;
826;SDS011;395;48.132;11.608;2023-03-03T16:36:01;38.93;;;25.93;;
826;SDS011;395;48.132;11.608;2023-03-03T16:38:37;48.87;;;28.40;;
826;SDS011;395;48.132;11.608;2023-03-03T16:41:22;46.70;;;28.20;;
826;SDS011;395;48.132;11.608;2023-03-03T16:44:23;38.77;;;25.57;;
826;SDS011;395;48.132;11.608;2023-03-03T16:50:20;41.10;;;27.97;;
826;SDS011;395;48.132;11.608;2023-03-03T16:52:55;43.75;;;28.40;;
826;SDS011;395;48.132;11.608;2023-03-03T16:55:30;38.20;;;25.43;;
826;SDS011;395;48.132;11.608;2023-03-03T17:00:49;37.80;;;24.10;;
826;SDS011;395;48.132;11.608;2023-03-03T17:08:42;42.33;;;26.13;;
826;SDS011;395;48.132;11.608;2023-03-03T17:14:32;42.97;;;28.40;;
826;SDS011;395;48.132;11.608;2023-03-03T17:25:16;42.33;;;28.47;;
826;SDS011;395;48.132;11.608;2023-03-03T17:27:49;41.80;;;29.20;;
826;SDS011;395;48.132;11.608;2023-03-03T17:46:38;42.47;;;27.53;;
826;SDS011;395;48.132;11.608;2023-03-03T17:52:44;45.07;;;29.73;;
826;SDS011;395;48.132;11.608;2023-03-03T18:04:16;48.63;;;31.70;;
826;SDS011;395;48.132;11.608;2023-03-03T18:23:41;52.47;;;33.27;;
826;SDS011;395;48.132;11.608;2023-03-03T18:28:55;54.43;;;33.30;;
826;SDS011;395;48.132;11.608;2023-03-03T18:31:49;52.10;;;32.17;;
826;SDS011;395;48.132;11.608;2023-03-03T18:34:29;53.42;;;31.50;;
826;SDS011;395;48.132;11.608;2023-03-03T18:37:01;51.13;;;31.88;;
826;SDS011;395;48.132;11.608;2023-03-03T18:39:49;51.58;;;33.05;;
826;SDS011;395;48.132;11.608;2023-03-03T18:55:47;54.87;;;33.23;;
826;SDS011;395;48.132;11.608;2023-03-03T19:00:47;53.77;;;33.90;;
826;SDS011;395;48.132;11.608;2023-03-03T19:03:26;51.17;;;32.50;;
826;SDS011;395;48.132;11.608;2023-03-03T19:05:55;50.63;;;33.05;;
826;SDS011;395;48.132;11.608;2023-03-03T19:11:26;58.07;;;34.40;;
826;SDS011;395;48.132;11.608;2023-03-03T19:14:18;53.70;;;33.35;;
826;SDS011;395;48.132;11.608;2023-03-03T19:16:54;55.92;;;35.00;;
826;SDS011;395;48.132;11.608;2023-03-03T19:22:49;54.13;;;32.47;;
826;SDS011;395;48.132;11.608;2023-03-03T19:25:24;52.17;;;33.67;;
826;SDS011;395;48.132;11.608;2023-03-03T19:28:02;53.70;;;33.77;;
826;SDS011;395;48.132;11.608;2023-03-03T19:33:40;52.67;;;33.35;;
826;SDS011;395;48.132;11.608;2023-03-03T19:36:19;51.73;;;33.13;;
826;SDS011;395;48.132;11.608;2023-03-03T19:38:55;52.17;;;34.25;;
826;SDS011;395;48.132;11.608;2023-03-03T19:46:57;56.40;;;33.53;;
826;SDS011;395;48.132;11.608;2023-03-03T19:55:17;55.95;;;33.22;;
826;SDS011;395;48.132;11.608;2023-03-03T20:08:42;45.78;;;31.50;;
826;SDS011;395;48.132;11.608;2023-03-03T20:14:32;48.88;;;32.72;;
826;SDS011;395;48.132;11.608;2023-03-03T20:22:42;52.78;;;33.00;;
826;SDS011;395;48.132;11.608;2023-03-03T20:39:33;54.35;;;33.88;;
826;SDS011;395;48.132;11.608;2023-03-03T20:53:32;56.38;;;34.63;;
826;SDS011;395;48.132;11.608;2023-03-03T20:56:22;56.13;;;34.55;;
826;SDS011;395;48.132;11.608;2023-03-03T21:01:31;60.53;;;35.15;;
826;SDS011;395;48.132;11.608;2023-03-03T21:06:45;58.57;;;35.30;;
826;SDS011;395;48.132;11.608;2023-03-03T21:09:25;55.78;;;34.13;;
826;SDS011;395;48.132;11.608;2023-03-03T21:11:55;57.38;;;34.47;;
826;SDS011;395;48.132;11.608;2023-03-03T21:14:25;58.60;;;34.33;;
826;SDS011;395;48.132;11.608;2023-03-03T21:16:58;55.00;;;31.98;;
826;SDS011;395;48.132;11.608;2023-03-03T21:19:33;56.75;;;34.92;;
826;SDS011;395;48.132;11.608;2023-03-03T21:22:01;53.20;;;32.60;;
826;SDS011;395;48.132;11.608;2023-03-03T21:27:29;61.03;;;36.63;;
826;SDS011;395;48.132;11.608;2023-03-03T21:32:38;53.03;;;32.78;;
826;SDS011;395;48.132;11.608;2023-03-03T21:42:47;55.38;;;33.33;;
826;SDS011;395;48.132;11.608;2023-03-03T21:45:14;52.10;;;31.70;;
826;SDS011;395;48.132;11.608;2023-03-03T21:47:41;63.75;;;35.67;;
826;SDS011;395;48.132;11.608;2023-03-03T21:50:07;60.08;;;34.00;;
826;SDS011;395;48.132;11.608;2023-03-03T21:52:33;57.67;;;34.65;;
826;SDS011;395;48.132;11.608;2023-03-03T21:54:59;54.73;;;34.03;;
826;SDS011;395;48.132;11.608;2023-03-03T21:57:24;53.07;;;34.60;;
826;SDS011;395;48.132;11.608;2023-03-03T21:59:50;53.87;;;33.00;;
826;SDS011;395;48.132;11.608;2023-03-03T22:02:17;60.40;;;34.22;;
826;SDS011;395;48.132;11.608;2023-03-03T22:04:42;60.43;;;33.53;;
826;SDS011;395;48.132;11.608;2023-03-03T22:07:08;55.43;;;33.07;;
826;SDS011;395;48.132;11.608;2023-03-03T22:09:34;52.65;;;32.90;;
826;SDS011;395;48.132;11.608;2023-03-03T22:12:00;54.13;;;36.05;;
826;SDS011;395;48.132;11.608;2023-03-03T22:14:26;54.33;;;33.77;;
826;SDS011;395;48.132;11.608;2023-03-03T22:16:52;58.20;;;35.67;;
826;SDS011;395;48.132;11.608;2023-03-03T22:19:17;60.43;;;33.60;;
826;SDS011;395;48.132;11.608;2023-03-03T22:21:43;59.87;;;35.47;;
826;SDS011;395;48.132;11.608;2023-03-03T22:24:10;59.35;;;33.25;;
826;SDS011;395;48.132;11.608;2023-03-03T22:26:36;59.77;;;35.73;;
826;SDS011;395;48.132;11.608;2023-03-03T22:29:02;64.13;;;34.70;;
826;SDS011;395;48.132;11.608;2023-03-03T22:31:28;59.35;;;34.08;;
826;SDS011;395;48.132;11.608;2023-03-03T22:33:54;53.60;;;34.13;;
826;SDS011;395;48.132;11.608;2023-03-03T22:36:20;56.37;;;33.37;;
826;SDS011;395;48.132;11.608;2023-03-03T22:38:45;56.90;;;33.90;;
826;SDS011;395;48.132;11.608;2023-03-03T22:41:12;51.95;;;33.22;;
826;SDS011;395;48.132;11.608;2023-03-03T22:43:38;60.80;;;35.08;;
826;SDS011;395;48.132;11.608;2023-03-03T22:46:04;54.37;;;33.73;;
826;SDS011;395;48.132;11.608;2023-03-03T22:48:30;52.57;;;32.93;;
826;SDS011;395;48.132;11.608;2023-03-03T22:50:56;55.58;;;33.72;;
826;SDS011;395;48.132;11.608;2023-03-03T22:53:23;50.30;;;33.03;;
826;SDS011;395;48.132;11.608;2023-03-03T22:55:49;60.05;;;34.90;;
826;SDS011;395;48.132;11.608;2023-03-03T22:58:15;59.93;;;36.17;;
826;SDS011;395;48.132;11.608;2023-03-03T23:00:48;54.67;;;35.58;;
826;SDS011;395;48.132;11.608;2023-03-03T23:03:14;57.03;;;35.10;;
826;SDS011;395;48.132;11.608;2023-03-03T23:05:40;57.38;;;32.88;;